Abbott, Texas
Current Conditions -  °F | °C
As of 2:35 PM on Monday 22 Dec 2014 (Local Time) from KINJ Reporting Station
Clear Clear  
Wind Chill: 67°   Ceiling: Unl
Heat Index: 67°   Visibility: 10mi
Dew Point: 39°   Wind: 15mph
Humidity: 35%   Direction: 280°W
Pressure: 29.58"   Gusts: NA
Location:  31.88°N, 97.07°W
Report Text: KINJ 222035Z AUTO 28013KT 10SM CLR 20/04 A2958 RMK AO2 T01970037
Loading
Personal Weather Stations






























Interactive Weather Map New forecast layout! Learn more

10-Day Weather Forecast

Advertisements
Track Severe Weather on mobile